createdAt,value
2019-03-02T00:01:55.997Z,14.70
2019-03-02T00:04:26.171Z,16.20
2019-03-02T00:06:56.356Z,15.00
2019-03-02T00:09:26.519Z,14.97
2019-03-02T00:11:57.470Z,16.33
2019-03-02T00:14:28.328Z,16.63
2019-03-02T00:16:58.467Z,15.87
2019-03-02T00:19:28.729Z,17.83
2019-03-02T00:22:17.994Z,17.47
2019-03-02T00:24:48.156Z,17.00
2019-03-02T00:27:21.289Z,17.93
2019-03-02T00:29:50.179Z,19.37
2019-03-02T00:32:20.351Z,19.47
2019-03-02T00:34:50.505Z,20.40
2019-03-02T00:37:20.691Z,20.20
2019-03-02T00:39:54.594Z,21.23
2019-03-02T00:42:24.975Z,20.77
2019-03-02T00:44:56.579Z,22.23
2019-03-02T00:47:26.756Z,22.27
2019-03-02T00:49:57.246Z,21.00
2019-03-02T00:52:28.888Z,21.70
2019-03-02T00:55:00.237Z,21.30
2019-03-02T00:57:30.402Z,21.40
2019-03-02T01:00:00.554Z,24.23
2019-03-02T01:02:30.697Z,24.33
2019-03-02T01:05:03.055Z,23.60
2019-03-02T01:07:33.371Z,22.87
2019-03-02T01:10:03.925Z,24.50
2019-03-02T01:12:34.379Z,24.00
2019-03-02T01:15:08.451Z,25.17
2019-03-02T01:17:38.215Z,23.47
2019-03-02T01:20:09.731Z,24.10
2019-03-02T01:22:40.103Z,23.33
2019-03-02T01:25:13.442Z,23.63
2019-03-02T01:27:43.967Z,23.13
2019-03-02T01:30:16.333Z,22.70
2019-03-02T01:32:48.690Z,22.13
2019-03-02T01:35:20.170Z,22.80
2019-03-02T01:37:50.199Z,22.00
2019-03-02T01:40:20.364Z,22.80
2019-03-02T01:42:50.631Z,22.33
2019-03-02T01:45:24.135Z,21.77
2019-03-02T01:47:52.634Z,21.10
2019-03-02T01:50:22.804Z,22.03
2019-03-02T01:52:52.944Z,22.67
2019-03-02T01:55:23.111Z,24.40
2019-03-02T01:57:53.345Z,23.47
2019-03-02T02:00:29.439Z,22.67
2019-03-02T02:02:59.652Z,23.67
2019-03-02T02:05:31.948Z,28.27
2019-03-02T02:08:01.879Z,28.90
2019-03-02T02:10:33.106Z,29.43
2019-03-02T02:13:06.132Z,29.23
2019-03-02T02:15:35.380Z,30.27
2019-03-02T02:18:05.617Z,28.80
2019-03-02T02:20:35.783Z,31.00
2019-03-02T02:23:05.945Z,31.80
2019-03-02T02:25:36.543Z,30.17
2019-03-02T02:28:06.815Z,29.80
2019-03-02T02:30:37.186Z,31.13
2019-03-02T02:33:07.309Z,29.37
2019-03-02T02:35:40.225Z,31.30
2019-03-02T02:38:11.240Z,30.60
2019-03-02T02:40:41.300Z,30.63
2019-03-02T02:43:11.461Z,31.60
2019-03-02T02:45:41.615Z,30.80
2019-03-02T02:48:11.779Z,31.30
2019-03-02T02:50:43.046Z,29.73
2019-03-02T02:53:15.304Z,30.70
2019-03-02T02:55:45.470Z,32.13
2019-03-02T02:58:17.625Z,30.67
2019-03-02T03:00:50.022Z,31.80
2019-03-02T03:03:20.763Z,30.87
2019-03-02T03:05:54.104Z,33.03
2019-03-02T03:08:45.148Z,32.70
2019-03-02T03:11:16.571Z,31.37
2019-03-02T03:13:46.741Z,32.73
2019-03-02T03:16:17.942Z,31.63
2019-03-02T03:18:52.137Z,32.67
2019-03-02T03:21:26.885Z,31.53
2019-03-02T03:23:53.917Z,32.20
2019-03-02T03:26:23.972Z,31.93
2019-03-02T03:28:54.144Z,30.40
2019-03-02T03:31:26.023Z,31.80
2019-03-02T03:33:56.172Z,33.37
2019-03-02T03:36:30.176Z,32.30
2019-03-02T03:39:02.638Z,29.97
2019-03-02T03:41:30.121Z,33.10
2019-03-02T03:44:00.419Z,31.27
2019-03-02T03:46:30.560Z,31.50
2019-03-02T03:49:00.740Z,30.03
2019-03-02T03:51:32.129Z,31.10
2019-03-02T03:54:06.772Z,31.33
2019-03-02T03:56:37.725Z,31.40
2019-03-02T03:59:07.260Z,31.67
2019-03-02T04:01:37.447Z,32.00
2019-03-02T04:04:07.619Z,32.07
2019-03-02T04:06:37.786Z,33.57
2019-03-02T04:09:09.919Z,34.90
2019-03-02T04:11:42.115Z,33.27
2019-03-02T04:14:11.845Z,35.97
2019-03-02T04:16:42.007Z,35.30
2019-03-02T04:19:16.308Z,35.20
2019-03-02T04:21:47.880Z,37.37
2019-03-02T04:24:18.078Z,36.00
2019-03-02T04:26:48.311Z,37.13
2019-03-02T04:29:18.465Z,33.53
2019-03-02T04:31:50.394Z,34.87
2019-03-02T04:34:22.734Z,38.50
2019-03-02T04:36:52.436Z,38.23
2019-03-02T04:39:22.592Z,35.87
2019-03-02T04:41:52.746Z,35.30
2019-03-02T04:44:25.744Z,37.70
2019-03-02T04:46:54.763Z,36.27
2019-03-02T04:49:24.907Z,37.60
2019-03-02T04:51:55.066Z,38.10
2019-03-02T04:54:25.207Z,38.53
2019-03-02T04:56:55.556Z,37.10
2019-03-02T04:59:26.971Z,36.70
2019-03-02T05:01:57.105Z,39.20
2019-03-02T05:04:28.702Z,41.00
2019-03-02T05:06:59.084Z,39.70
2019-03-02T05:09:29.251Z,36.47
2019-03-02T05:11:59.387Z,38.43
2019-03-02T05:14:29.553Z,37.17
2019-03-02T05:16:59.722Z,37.90
2019-03-02T05:19:29.924Z,38.97
2019-03-02T05:22:00.199Z,40.70
2019-03-02T05:24:30.364Z,40.00
2019-03-02T05:27:00.536Z,41.00
2019-03-02T05:29:30.675Z,40.67
2019-03-02T05:32:00.831Z,42.60
2019-03-02T05:34:32.040Z,42.93
2019-03-02T05:37:02.841Z,41.93
2019-03-02T05:39:34.026Z,44.17
2019-03-02T05:42:04.190Z,43.17
2019-03-02T05:44:34.353Z,43.97
2019-03-02T05:47:04.531Z,43.60
2019-03-02T05:49:34.663Z,42.17
2019-03-02T05:52:04.840Z,41.40
2019-03-02T05:54:35.012Z,44.33
2019-03-02T05:57:05.483Z,46.70
2019-03-02T05:59:35.794Z,45.83
2019-03-02T06:02:05.972Z,42.83
2019-03-02T06:04:36.157Z,43.43
2019-03-02T06:07:06.319Z,41.20
2019-03-02T06:09:36.488Z,43.00
2019-03-02T06:12:06.655Z,42.00
2019-03-02T06:14:36.817Z,42.77
2019-03-02T06:17:06.963Z,43.57
2019-03-02T06:19:37.142Z,44.10
2019-03-02T06:22:07.275Z,41.93
2019-03-02T06:24:37.724Z,44.83
2019-03-02T06:27:10.850Z,40.83
2019-03-02T06:29:41.244Z,45.70
2019-03-02T06:32:11.459Z,43.07
2019-03-02T06:34:41.610Z,47.43
2019-03-02T06:37:11.804Z,47.40
2019-03-02T06:39:44.466Z,45.87
2019-03-02T06:42:18.050Z,44.27
2019-03-02T06:44:48.706Z,42.20
2019-03-02T06:47:18.936Z,43.77
2019-03-02T06:49:49.123Z,44.67
2019-03-02T06:52:25.049Z,43.50
2019-03-02T06:54:51.376Z,44.47
2019-03-02T06:57:21.555Z,45.40
2019-03-02T06:59:51.748Z,44.30
2019-03-02T07:02:21.936Z,42.27
2019-03-02T07:04:55.153Z,43.30
2019-03-02T07:07:24.022Z,43.90
2019-03-02T07:09:54.180Z,43.23
2019-03-02T07:12:24.335Z,43.40
2019-03-02T07:14:57.546Z,46.40
2019-03-02T07:17:53.509Z,46.27
2019-03-02T07:20:27.435Z,43.97
2019-03-02T07:22:57.284Z,46.63
2019-03-02T07:25:27.478Z,43.37
2019-03-02T07:28:01.843Z,45.93
2019-03-02T07:30:31.004Z,45.43
2019-03-02T07:33:01.181Z,46.87
2019-03-02T07:35:31.344Z,44.90
2019-03-02T07:38:01.571Z,43.73
2019-03-02T07:40:31.826Z,43.93
2019-03-02T07:43:05.988Z,41.50
2019-03-02T07:45:36.339Z,43.07
2019-03-02T07:48:06.366Z,42.00
2019-03-02T07:50:36.665Z,40.10
2019-03-02T07:53:06.975Z,45.40
2019-03-02T07:55:38.343Z,41.33
2019-03-02T07:58:08.643Z,41.57
2019-03-02T08:00:46.043Z,47.20
2019-03-02T08:03:16.340Z,44.33
2019-03-02T08:05:46.950Z,41.97
2019-03-02T08:08:18.460Z,43.67
2019-03-02T08:10:49.756Z,44.77
2019-03-02T08:13:19.960Z,47.07
2019-03-02T08:15:50.187Z,43.77
2019-03-02T08:18:25.244Z,43.97
2019-03-02T08:20:57.371Z,43.80
2019-03-02T08:23:26.915Z,42.57
2019-03-02T08:25:57.102Z,44.43
2019-03-02T08:28:27.298Z,43.43
2019-03-02T08:30:58.527Z,43.30
2019-03-02T08:33:30.589Z,43.57
2019-03-02T08:36:00.563Z,40.53
2019-03-02T08:38:30.778Z,44.63
2019-03-02T08:41:01.737Z,40.90
2019-03-02T08:43:33.250Z,40.83
2019-03-02T08:46:07.042Z,39.23
2019-03-02T08:48:35.349Z,40.50
2019-03-02T08:51:05.517Z,42.30
2019-03-02T08:53:35.672Z,42.27
2019-03-02T08:56:08.677Z,41.97
2019-03-02T08:58:37.715Z,43.27
2019-03-02T09:01:09.813Z,42.10
2019-03-02T09:03:39.996Z,39.50
2019-03-02T09:06:11.739Z,40.10
2019-03-02T09:08:42.125Z,36.83
2019-03-02T09:11:12.316Z,37.77
2019-03-02T09:13:43.663Z,36.87
2019-03-02T09:16:13.900Z,36.00
2019-03-02T09:18:45.725Z,31.93
2019-03-02T09:21:16.022Z,35.67
2019-03-02T09:23:46.224Z,33.87
2019-03-02T09:26:16.559Z,35.60
2019-03-02T09:28:46.757Z,35.00
2019-03-02T09:31:25.916Z,33.67
2019-03-02T09:33:48.855Z,32.23
2019-03-02T09:36:19.094Z,33.23
2019-03-02T09:38:50.058Z,31.50
2019-03-02T09:41:22.027Z,30.60
2019-03-02T09:43:55.259Z,30.93
2019-03-02T09:46:24.755Z,29.57
2019-03-02T09:48:56.998Z,29.30
2019-03-02T09:51:29.323Z,30.70
2019-03-02T09:53:59.628Z,25.10
2019-03-02T09:56:29.814Z,29.77
2019-03-02T09:59:01.532Z,27.93
2019-03-02T10:01:31.925Z,32.43
2019-03-02T10:04:03.052Z,29.70
2019-03-02T10:06:34.160Z,24.63
2019-03-02T10:09:09.514Z,25.50
2019-03-02T10:11:41.431Z,28.53
2019-03-02T10:14:26.622Z,27.07
2019-03-02T10:16:57.435Z,27.37
2019-03-02T10:19:28.885Z,25.10
2019-03-02T10:21:59.866Z,28.60
2019-03-02T10:24:30.151Z,26.20
2019-03-02T10:27:00.379Z,26.10
2019-03-02T10:29:32.296Z,27.80
2019-03-02T10:32:04.514Z,25.80
2019-03-02T10:35:17.169Z,25.13
2019-03-02T10:37:45.976Z,25.23
2019-03-02T10:40:16.745Z,25.00
2019-03-02T10:42:47.067Z,23.37
2019-03-02T10:45:18.115Z,24.47
2019-03-02T10:47:48.530Z,24.13
2019-03-02T10:50:23.217Z,24.13
2019-03-02T10:52:52.626Z,24.40
2019-03-02T10:55:22.989Z,25.60
2019-03-02T10:57:53.172Z,23.53
2019-03-02T11:00:29.600Z,23.43
2019-03-02T11:02:58.465Z,24.63
2019-03-02T11:05:52.920Z,25.13
2019-03-02T11:08:50.456Z,24.10
2019-03-02T11:11:57.967Z,24.87
2019-03-02T11:14:56.169Z,25.27
2019-03-02T11:17:45.397Z,21.60
2019-03-02T11:20:33.214Z,23.27
2019-03-02T11:23:23.142Z,23.93
2019-03-02T11:26:21.719Z,24.20
2019-03-02T11:29:02.751Z,22.17
2019-03-02T11:31:41.996Z,23.70
2019-03-02T11:34:37.286Z,23.23
2019-03-02T11:37:44.607Z,21.10
2019-03-02T11:40:33.174Z,17.53
2019-03-02T11:43:20.783Z,18.77
2019-03-02T11:45:57.148Z,16.80
2019-03-02T11:48:48.470Z,16.40
2019-03-02T11:51:26.837Z,14.83
2019-03-02T11:54:15.383Z,13.50
2019-03-02T11:57:10.571Z,15.90
2019-03-02T11:59:59.847Z,16.83
2019-03-02T12:02:58.348Z,15.93
2019-03-02T12:06:05.850Z,16.83
2019-03-02T12:09:04.740Z,12.13
2019-03-02T12:11:55.651Z,17.63
2019-03-02T12:22:38.103Z,13.80
2019-03-02T12:25:31.128Z,9.67
2019-03-02T12:28:27.500Z,14.03
2019-03-02T12:31:28.158Z,16.33
2019-03-02T12:34:22.126Z,16.47
2019-03-02T12:37:20.316Z,14.63
2019-03-02T12:40:08.875Z,16.47
2019-03-02T12:43:04.086Z,15.80
2019-03-02T12:45:50.649Z,12.80
2019-03-02T12:48:51.673Z,10.57
2019-03-02T14:11:01.382Z,9.33
2019-03-02T14:14:08.184Z,8.57
2019-03-02T14:17:08.253Z,8.20
2019-03-02T14:19:54.221Z,7.50
2019-03-02T14:22:48.984Z,9.47
2019-03-02T14:25:28.497Z,9.80
2019-03-02T14:28:13.996Z,8.93
2019-03-02T14:31:02.451Z,8.03
2019-03-02T14:33:54.319Z,8.20
2019-03-02T14:36:55.529Z,9.80
2019-03-02T14:39:38.128Z,8.37
2019-03-02T14:42:27.729Z,8.37
2019-03-02T14:45:14.050Z,6.57
2019-03-02T14:48:09.293Z,8.70
2019-03-02T14:50:48.737Z,10.53
2019-03-02T14:53:36.456Z,10.60
2019-03-02T14:56:24.488Z,9.20
2019-03-02T14:59:14.181Z,9.30
2019-03-02T15:02:16.711Z,9.77
2019-03-02T15:05:25.074Z,10.00
2019-03-02T15:08:37.230Z,8.87
2019-03-02T15:11:32.231Z,8.73
2019-03-02T15:14:20.511Z,9.83
2019-03-02T15:17:09.154Z,9.63
2019-03-02T15:19:58.333Z,8.37
2019-03-02T15:22:34.853Z,7.70
2019-03-02T15:25:19.233Z,9.00
2019-03-02T15:28:07.299Z,8.13
2019-03-02T15:31:03.039Z,8.50
2019-03-02T15:33:51.857Z,8.37
2019-03-02T15:36:39.953Z,8.87
2019-03-02T15:39:29.024Z,7.70
2019-03-02T15:42:24.448Z,8.80
2019-03-02T15:45:23.929Z,7.83
2019-03-02T15:48:13.433Z,6.80
2019-03-02T15:50:59.128Z,6.03
2019-03-02T15:53:56.582Z,6.60
2019-03-02T15:56:44.839Z,6.87
2019-03-02T15:59:26.485Z,7.30
2019-03-02T16:02:21.771Z,6.67
2019-03-02T16:05:19.580Z,6.27
2019-03-02T16:08:21.203Z,6.30
2019-03-02T16:11:13.148Z,5.80
2019-03-02T16:14:01.230Z,5.53
2019-03-02T16:16:56.186Z,6.57
2019-03-02T16:19:44.217Z,6.50
2019-03-02T16:22:23.712Z,6.97
2019-03-02T16:25:12.969Z,6.30
2019-03-02T16:27:51.006Z,6.53
2019-03-02T16:30:39.268Z,6.50
2019-03-02T16:33:30.707Z,6.23
2019-03-02T16:36:05.243Z,7.00
2019-03-02T16:38:53.016Z,6.20
2019-03-02T16:41:41.017Z,6.87
2019-03-02T16:44:48.323Z,6.17
2019-03-02T16:47:40.225Z,6.23
2019-03-02T16:50:31.841Z,6.30
2019-03-02T16:53:19.636Z,6.47
2019-03-02T16:56:23.138Z,7.10
2019-03-02T16:59:02.027Z,7.50
2019-03-02T17:01:57.748Z,7.33
2019-03-02T17:04:40.437Z,8.00
2019-03-02T17:07:23.367Z,7.00
2019-03-02T17:10:04.656Z,7.60
2019-03-02T17:12:54.132Z,8.50
2019-03-02T17:15:30.891Z,8.27
2019-03-02T17:18:26.680Z,8.17
2019-03-02T17:21:16.493Z,10.37
2019-03-02T17:24:02.603Z,9.00
2019-03-02T17:26:46.030Z,10.77
2019-03-02T17:29:27.681Z,9.10
2019-03-02T17:32:19.724Z,9.00
2019-03-02T17:35:21.063Z,10.03
2019-03-02T17:38:21.122Z,8.50
2019-03-02T17:41:07.846Z,10.17
2019-03-02T17:43:54.934Z,10.80
2019-03-02T17:46:47.094Z,9.77
2019-03-02T17:49:35.031Z,10.00
2019-03-02T17:52:28.182Z,9.17
2019-03-02T17:55:17.303Z,10.67
2019-03-02T17:58:10.799Z,11.37
2019-03-02T18:00:53.233Z,10.87
2019-03-02T18:03:50.002Z,11.13
2019-03-02T18:06:35.486Z,20.57
2019-03-02T18:09:27.172Z,9.20
2019-03-02T18:12:19.101Z,9.90
2019-03-02T18:15:07.111Z,17.57
2019-03-02T18:18:03.267Z,10.97
2019-03-02T18:20:35.017Z,19.17
2019-03-02T18:23:06.036Z,26.57
2019-03-02T18:25:36.236Z,15.50
2019-03-02T18:28:10.137Z,16.87
2019-03-02T18:30:38.980Z,17.50
2019-03-02T18:33:18.071Z,12.00
2019-03-02T18:35:49.775Z,13.57
2019-03-02T18:38:19.969Z,11.13
2019-03-02T18:40:52.052Z,10.70
2019-03-02T18:43:23.412Z,12.20
2019-03-02T18:45:53.918Z,10.50
2019-03-02T18:48:41.824Z,12.70
2019-03-02T18:51:21.339Z,14.97
2019-03-02T18:53:53.344Z,12.50
2019-03-02T18:56:23.538Z,10.53
2019-03-02T18:59:00.356Z,12.60
2019-03-02T19:01:25.691Z,17.63
2019-03-02T19:03:56.723Z,14.97
2019-03-02T19:06:27.773Z,13.13
2019-03-02T19:08:58.024Z,26.47
2019-03-02T19:11:28.313Z,25.10
2019-03-02T19:13:58.614Z,12.30
2019-03-02T19:16:28.820Z,19.33
2019-03-02T19:19:00.269Z,18.70
2019-03-02T19:21:30.549Z,13.63
2019-03-02T19:24:01.842Z,11.33
2019-03-02T19:26:32.067Z,10.63
2019-03-02T19:29:02.349Z,11.60
2019-03-02T19:31:32.621Z,16.90
2019-03-02T19:34:02.852Z,12.50
2019-03-02T19:36:33.124Z,11.90
2019-03-02T19:39:04.805Z,12.20
2019-03-02T19:41:35.557Z,12.10
2019-03-02T19:44:05.767Z,16.40
2019-03-02T19:46:36.048Z,13.13
2019-03-02T19:49:06.331Z,15.43
2019-03-02T19:51:36.586Z,13.10
2019-03-02T19:54:06.750Z,12.27
2019-03-02T19:56:37.018Z,12.27
2019-03-02T19:59:07.252Z,10.37
2019-03-02T20:01:37.461Z,9.53
2019-03-02T20:04:07.726Z,9.50
2019-03-02T20:06:39.007Z,9.20
2019-03-02T20:09:09.278Z,8.87
2019-03-02T20:11:40.856Z,8.03
2019-03-02T20:14:12.391Z,9.13
2019-03-02T20:16:42.620Z,7.80
2019-03-02T20:19:12.911Z,8.57
2019-03-02T20:21:43.113Z,16.20
2019-03-02T20:24:13.484Z,7.00
2019-03-02T20:26:43.717Z,7.13
2019-03-02T20:29:14.082Z,6.07
2019-03-02T20:31:44.360Z,7.47
2019-03-02T20:34:14.753Z,7.87
2019-03-02T20:36:45.037Z,7.17
2019-03-02T20:39:15.297Z,7.03
2019-03-02T20:41:46.063Z,5.20
2019-03-02T20:44:16.442Z,4.87
2019-03-02T20:46:46.734Z,4.80
2019-03-02T20:49:17.210Z,4.40
2019-03-02T20:51:47.379Z,4.23
2019-03-02T20:54:17.648Z,4.30
2019-03-02T20:56:47.814Z,5.00
2019-03-02T20:59:18.079Z,4.40
2019-03-02T21:01:48.417Z,4.97
2019-03-02T21:04:18.692Z,3.77
2019-03-02T21:06:50.027Z,4.40
2019-03-02T21:09:20.204Z,4.80
2019-03-02T21:11:50.545Z,4.73
2019-03-02T21:14:20.799Z,4.10
2019-03-02T21:16:51.043Z,4.33
2019-03-02T21:19:21.212Z,5.13
2019-03-02T21:21:51.526Z,4.40
2019-03-02T21:24:21.791Z,3.47
2019-03-02T21:26:51.994Z,3.93
2019-03-02T21:29:22.272Z,3.63
2019-03-02T21:31:52.573Z,3.17
2019-03-02T21:34:22.857Z,3.63
2019-03-02T21:36:53.047Z,3.80
2019-03-02T21:39:23.511Z,3.60
2019-03-02T21:41:53.787Z,4.17
2019-03-02T21:44:24.087Z,3.70
2019-03-02T21:46:54.316Z,5.67
2019-03-02T21:49:24.582Z,4.50
2019-03-02T21:51:54.816Z,6.00
2019-03-02T21:54:25.209Z,3.50
2019-03-02T21:56:55.486Z,3.67
2019-03-02T21:59:25.684Z,4.27
2019-03-02T22:01:55.865Z,3.73
2019-03-02T22:04:26.117Z,3.70
2019-03-02T22:06:57.361Z,3.60
2019-03-02T22:09:27.616Z,4.40
2019-03-02T22:11:57.928Z,5.20
2019-03-02T22:14:29.108Z,4.97
2019-03-02T22:17:00.992Z,4.90
2019-03-02T22:19:31.144Z,6.17
2019-03-02T22:22:01.367Z,6.43
2019-03-02T22:24:31.543Z,6.37
2019-03-02T22:27:01.735Z,6.93
2019-03-02T22:29:32.192Z,8.20
2019-03-02T22:32:02.371Z,7.50
2019-03-02T22:34:32.577Z,7.27
2019-03-02T22:37:02.773Z,7.93
2019-03-02T22:39:32.924Z,7.83
2019-03-02T22:42:03.805Z,8.07
2019-03-02T22:44:34.175Z,7.43
2019-03-02T22:47:04.360Z,8.40
2019-03-02T22:49:34.550Z,8.53
2019-03-02T22:52:04.804Z,9.03
2019-03-02T22:54:35.017Z,7.50
2019-03-02T22:57:05.176Z,7.13
2019-03-02T22:59:35.500Z,7.00
2019-03-02T23:02:22.900Z,6.37
2019-03-02T23:04:53.086Z,7.20
2019-03-02T23:07:23.239Z,5.73
2019-03-02T23:09:53.432Z,5.80
2019-03-02T23:12:23.577Z,6.53
2019-03-02T23:14:55.239Z,5.77
2019-03-02T23:17:26.492Z,4.83
2019-03-02T23:19:56.661Z,5.50
2019-03-02T23:22:26.829Z,5.30
2019-03-02T23:24:56.975Z,5.13
2019-03-02T23:27:27.168Z,4.50
2019-03-02T23:29:57.741Z,4.90
2019-03-02T23:32:27.984Z,3.97
2019-03-02T23:34:58.241Z,4.10
2019-03-02T23:37:28.395Z,4.43
2019-03-02T23:39:58.565Z,4.27
2019-03-02T23:42:28.752Z,3.70
2019-03-02T23:44:58.923Z,5.10
2019-03-02T23:47:29.053Z,4.63
2019-03-02T23:49:59.226Z,4.80
2019-03-02T23:52:29.387Z,3.73
2019-03-02T23:54:59.558Z,4.13
2019-03-02T23:57:29.725Z,2.87
2019-03-02T23:59:59.890Z,3.30
